sensor_id;sensor_type;location;lat;lon;timestamp;P1;durP1;ratioP1;P2;durP2;ratioP2
11935;SDS011;6027;48.576;9.180;2023-11-21T00:00:51;7.40;;;3.03;;
11935;SDS011;6027;48.576;9.180;2023-11-21T00:03:16;7.32;;;2.95;;
11935;SDS011;6027;48.576;9.180;2023-11-21T00:05:42;6.55;;;2.90;;
11935;SDS011;6027;48.576;9.180;2023-11-21T00:08:08;8.50;;;2.83;;
11935;SDS011;6027;48.576;9.180;2023-11-21T00:10:34;5.47;;;2.63;;
11935;SDS011;6027;48.576;9.180;2023-11-21T00:13:00;7.63;;;2.83;;
11935;SDS011;6027;48.576;9.180;2023-11-21T00:15:27;7.82;;;2.67;;
11935;SDS011;6027;48.576;9.180;2023-11-21T00:17:52;8.65;;;2.67;;
11935;SDS011;6027;48.576;9.180;2023-11-21T00:20:17;9.57;;;2.83;;
11935;SDS011;6027;48.576;9.180;2023-11-21T00:22:43;9.52;;;2.90;;
11935;SDS011;6027;48.576;9.180;2023-11-21T00:25:08;8.32;;;3.00;;
11935;SDS011;6027;48.576;9.180;2023-11-21T00:27:34;7.18;;;2.60;;
11935;SDS011;6027;48.576;9.180;2023-11-21T00:30:01;5.93;;;2.40;;
11935;SDS011;6027;48.576;9.180;2023-11-21T00:32:26;5.03;;;2.60;;
11935;SDS011;6027;48.576;9.180;2023-11-21T00:34:52;6.38;;;2.90;;
11935;SDS011;6027;48.576;9.180;2023-11-21T00:37:17;6.63;;;2.83;;
11935;SDS011;6027;48.576;9.180;2023-11-21T00:39:42;5.68;;;2.60;;
11935;SDS011;6027;48.576;9.180;2023-11-21T00:42:08;7.35;;;2.65;;
11935;SDS011;6027;48.576;9.180;2023-11-21T00:44:37;6.38;;;3.10;;
11935;SDS011;6027;48.576;9.180;2023-11-21T00:47:04;6.88;;;2.40;;
11935;SDS011;6027;48.576;9.180;2023-11-21T00:49:29;5.47;;;2.40;;
11935;SDS011;6027;48.576;9.180;2023-11-21T00:51:55;7.47;;;2.80;;
11935;SDS011;6027;48.576;9.180;2023-11-21T00:54:20;4.22;;;2.10;;
11935;SDS011;6027;48.576;9.180;2023-11-21T00:56:46;4.15;;;2.20;;
11935;SDS011;6027;48.576;9.180;2023-11-21T00:59:13;5.40;;;2.15;;
11935;SDS011;6027;48.576;9.180;2023-11-21T01:01:38;6.05;;;2.30;;
11935;SDS011;6027;48.576;9.180;2023-11-21T01:04:04;6.65;;;1.95;;
11935;SDS011;6027;48.576;9.180;2023-11-21T01:06:31;7.55;;;2.13;;
11935;SDS011;6027;48.576;9.180;2023-11-21T01:08:57;4.45;;;2.13;;
11935;SDS011;6027;48.576;9.180;2023-11-21T01:11:23;7.75;;;2.00;;
11935;SDS011;6027;48.576;9.180;2023-11-21T01:13:48;6.28;;;2.10;;
11935;SDS011;6027;48.576;9.180;2023-11-21T01:16:14;6.25;;;2.35;;
11935;SDS011;6027;48.576;9.180;2023-11-21T01:18:39;4.57;;;1.95;;
11935;SDS011;6027;48.576;9.180;2023-11-21T01:21:04;5.55;;;1.90;;
11935;SDS011;6027;48.576;9.180;2023-11-21T01:23:30;2.53;;;1.42;;
11935;SDS011;6027;48.576;9.180;2023-11-21T01:25:56;3.80;;;1.63;;
11935;SDS011;6027;48.576;9.180;2023-11-21T01:28:21;7.20;;;2.00;;
11935;SDS011;6027;48.576;9.180;2023-11-21T01:30:47;3.35;;;1.73;;
11935;SDS011;6027;48.576;9.180;2023-11-21T01:33:13;4.55;;;1.55;;
11935;SDS011;6027;48.576;9.180;2023-11-21T01:35:40;4.30;;;1.65;;
11935;SDS011;6027;48.576;9.180;2023-11-21T01:38:06;6.53;;;1.50;;
11935;SDS011;6027;48.576;9.180;2023-11-21T01:40:33;3.90;;;1.45;;
11935;SDS011;6027;48.576;9.180;2023-11-21T01:42:58;4.80;;;1.73;;
11935;SDS011;6027;48.576;9.180;2023-11-21T01:45:24;5.20;;;1.95;;
11935;SDS011;6027;48.576;9.180;2023-11-21T01:47:50;5.80;;;2.63;;
11935;SDS011;6027;48.576;9.180;2023-11-21T01:50:16;6.10;;;2.28;;
11935;SDS011;6027;48.576;9.180;2023-11-21T01:52:43;5.30;;;2.03;;
11935;SDS011;6027;48.576;9.180;2023-11-21T01:55:13;6.65;;;1.77;;
11935;SDS011;6027;48.576;9.180;2023-11-21T01:57:43;3.45;;;1.60;;
11935;SDS011;6027;48.576;9.180;2023-11-21T02:00:08;3.17;;;1.63;;
11935;SDS011;6027;48.576;9.180;2023-11-21T02:02:49;4.40;;;1.42;;
11935;SDS011;6027;48.576;9.180;2023-11-21T02:05:15;2.88;;;1.48;;
11935;SDS011;6027;48.576;9.180;2023-11-21T02:07:43;5.18;;;1.75;;
11935;SDS011;6027;48.576;9.180;2023-11-21T02:10:09;3.88;;;1.45;;
11935;SDS011;6027;48.576;9.180;2023-11-21T02:12:35;4.60;;;1.40;;
11935;SDS011;6027;48.576;9.180;2023-11-21T02:15:05;3.10;;;1.27;;
11935;SDS011;6027;48.576;9.180;2023-11-21T02:17:35;3.53;;;1.40;;
11935;SDS011;6027;48.576;9.180;2023-11-21T02:20:01;4.60;;;1.60;;
11935;SDS011;6027;48.576;9.180;2023-11-21T02:22:30;4.70;;;1.20;;
11935;SDS011;6027;48.576;9.180;2023-11-21T02:24:59;2.75;;;1.25;;
11935;SDS011;6027;48.576;9.180;2023-11-21T02:27:24;3.10;;;1.33;;
11935;SDS011;6027;48.576;9.180;2023-11-21T02:29:52;3.88;;;1.30;;
11935;SDS011;6027;48.576;9.180;2023-11-21T02:32:17;3.20;;;1.25;;
11935;SDS011;6027;48.576;9.180;2023-11-21T02:34:44;3.17;;;1.30;;
11935;SDS011;6027;48.576;9.180;2023-11-21T02:37:10;4.07;;;1.33;;
11935;SDS011;6027;48.576;9.180;2023-11-21T02:39:35;2.53;;;1.10;;
11935;SDS011;6027;48.576;9.180;2023-11-21T02:42:01;2.77;;;1.10;;
11935;SDS011;6027;48.576;9.180;2023-11-21T02:44:26;2.47;;;1.20;;
11935;SDS011;6027;48.576;9.180;2023-11-21T02:46:52;2.22;;;1.05;;
11935;SDS011;6027;48.576;9.180;2023-11-21T02:49:17;2.87;;;1.30;;
11935;SDS011;6027;48.576;9.180;2023-11-21T02:51:42;2.10;;;0.90;;
11935;SDS011;6027;48.576;9.180;2023-11-21T02:54:09;3.50;;;1.20;;
11935;SDS011;6027;48.576;9.180;2023-11-21T02:56:35;3.57;;;1.10;;
11935;SDS011;6027;48.576;9.180;2023-11-21T02:59:00;1.55;;;0.88;;
11935;SDS011;6027;48.576;9.180;2023-11-21T03:01:26;1.87;;;0.97;;
11935;SDS011;6027;48.576;9.180;2023-11-21T03:03:52;2.30;;;1.13;;
11935;SDS011;6027;48.576;9.180;2023-11-21T03:06:18;2.50;;;0.93;;
11935;SDS011;6027;48.576;9.180;2023-11-21T03:08:45;1.92;;;1.00;;
11935;SDS011;6027;48.576;9.180;2023-11-21T03:11:10;4.22;;;1.00;;
11935;SDS011;6027;48.576;9.180;2023-11-21T03:13:36;1.07;;;0.80;;
11935;SDS011;6027;48.576;9.180;2023-11-21T03:16:01;2.25;;;0.85;;
11935;SDS011;6027;48.576;9.180;2023-11-21T03:18:26;2.07;;;1.00;;
11935;SDS011;6027;48.576;9.180;2023-11-21T03:20:54;2.53;;;0.90;;
11935;SDS011;6027;48.576;9.180;2023-11-21T03:23:19;3.08;;;1.00;;
11935;SDS011;6027;48.576;9.180;2023-11-21T03:25:45;2.67;;;1.10;;
11935;SDS011;6027;48.576;9.180;2023-11-21T03:28:10;2.03;;;0.73;;
11935;SDS011;6027;48.576;9.180;2023-11-21T03:30:36;3.15;;;1.00;;
11935;SDS011;6027;48.576;9.180;2023-11-21T03:33:01;1.90;;;0.88;;
11935;SDS011;6027;48.576;9.180;2023-11-21T03:35:26;2.92;;;1.00;;
11935;SDS011;6027;48.576;9.180;2023-11-21T03:37:53;2.67;;;1.10;;
11935;SDS011;6027;48.576;9.180;2023-11-21T03:40:18;2.58;;;1.00;;
11935;SDS011;6027;48.576;9.180;2023-11-21T03:42:43;2.40;;;0.90;;
11935;SDS011;6027;48.576;9.180;2023-11-21T03:45:09;2.58;;;1.10;;
11935;SDS011;6027;48.576;9.180;2023-11-21T03:47:34;2.40;;;1.10;;
11935;SDS011;6027;48.576;9.180;2023-11-21T03:50:00;3.25;;;1.00;;
11935;SDS011;6027;48.576;9.180;2023-11-21T03:52:26;2.50;;;0.80;;
11935;SDS011;6027;48.576;9.180;2023-11-21T03:54:53;1.80;;;0.85;;
11935;SDS011;6027;48.576;9.180;2023-11-21T03:57:20;2.35;;;1.00;;
11935;SDS011;6027;48.576;9.180;2023-11-21T03:59:46;1.33;;;0.63;;
11935;SDS011;6027;48.576;9.180;2023-11-21T04:02:11;2.75;;;0.82;;
11935;SDS011;6027;48.576;9.180;2023-11-21T04:04:54;2.28;;;0.93;;
11935;SDS011;6027;48.576;9.180;2023-11-21T04:07:21;2.03;;;0.82;;
11935;SDS011;6027;48.576;9.180;2023-11-21T04:10:07;3.65;;;1.30;;
11935;SDS011;6027;48.576;9.180;2023-11-21T04:12:58;2.15;;;0.70;;
11935;SDS011;6027;48.576;9.180;2023-11-21T04:15:23;1.52;;;0.68;;
11935;SDS011;6027;48.576;9.180;2023-11-21T04:17:49;2.58;;;0.90;;
11935;SDS011;6027;48.576;9.180;2023-11-21T04:20:14;1.30;;;0.70;;
11935;SDS011;6027;48.576;9.180;2023-11-21T04:22:40;1.30;;;0.77;;
11935;SDS011;6027;48.576;9.180;2023-11-21T04:25:10;2.50;;;1.23;;
11935;SDS011;6027;48.576;9.180;2023-11-21T04:27:41;1.98;;;0.90;;
11935;SDS011;6027;48.576;9.180;2023-11-21T04:30:09;2.65;;;0.90;;
11935;SDS011;6027;48.576;9.180;2023-11-21T04:32:35;1.60;;;0.95;;
11935;SDS011;6027;48.576;9.180;2023-11-21T04:35:01;1.38;;;0.75;;
11935;SDS011;6027;48.576;9.180;2023-11-21T04:37:26;1.38;;;0.75;;
11935;SDS011;6027;48.576;9.180;2023-11-21T04:39:52;2.42;;;0.82;;
11935;SDS011;6027;48.576;9.180;2023-11-21T04:42:17;2.35;;;0.68;;
11935;SDS011;6027;48.576;9.180;2023-11-21T04:44:42;1.67;;;0.60;;
11935;SDS011;6027;48.576;9.180;2023-11-21T04:47:09;1.95;;;0.60;;
11935;SDS011;6027;48.576;9.180;2023-11-21T04:49:34;2.25;;;0.60;;
11935;SDS011;6027;48.576;9.180;2023-11-21T04:52:00;1.75;;;0.50;;
11935;SDS011;6027;48.576;9.180;2023-11-21T04:54:26;1.63;;;0.47;;
11935;SDS011;6027;48.576;9.180;2023-11-21T04:56:51;1.13;;;0.50;;
11935;SDS011;6027;48.576;9.180;2023-11-21T04:59:17;2.22;;;0.50;;
11935;SDS011;6027;48.576;9.180;2023-11-21T05:01:42;0.98;;;0.60;;
11935;SDS011;6027;48.576;9.180;2023-11-21T05:04:08;1.27;;;0.80;;
11935;SDS011;6027;48.576;9.180;2023-11-21T05:06:34;0.90;;;0.57;;
11935;SDS011;6027;48.576;9.180;2023-11-21T05:08:59;1.70;;;0.70;;
11935;SDS011;6027;48.576;9.180;2023-11-21T05:11:25;1.70;;;0.57;;
11935;SDS011;6027;48.576;9.180;2023-11-21T05:13:51;1.13;;;0.40;;
11935;SDS011;6027;48.576;9.180;2023-11-21T05:16:16;3.50;;;0.70;;
11935;SDS011;6027;48.576;9.180;2023-11-21T05:18:42;1.65;;;0.57;;
11935;SDS011;6027;48.576;9.180;2023-11-21T05:21:07;1.20;;;0.50;;
11935;SDS011;6027;48.576;9.180;2023-11-21T05:23:33;1.48;;;0.70;;
11935;SDS011;6027;48.576;9.180;2023-11-21T05:25:59;1.63;;;0.70;;
11935;SDS011;6027;48.576;9.180;2023-11-21T05:28:24;1.40;;;0.63;;
11935;SDS011;6027;48.576;9.180;2023-11-21T05:30:50;2.50;;;0.80;;
11935;SDS011;6027;48.576;9.180;2023-11-21T05:33:16;1.77;;;0.80;;
11935;SDS011;6027;48.576;9.180;2023-11-21T05:35:41;1.65;;;1.10;;
11935;SDS011;6027;48.576;9.180;2023-11-21T05:38:06;1.90;;;1.00;;
11935;SDS011;6027;48.576;9.180;2023-11-21T05:40:32;1.05;;;0.95;;
11935;SDS011;6027;48.576;9.180;2023-11-21T05:42:58;2.10;;;1.02;;
11935;SDS011;6027;48.576;9.180;2023-11-21T05:45:24;3.55;;;1.85;;
11935;SDS011;6027;48.576;9.180;2023-11-21T05:47:49;3.25;;;2.20;;
11935;SDS011;6027;48.576;9.180;2023-11-21T05:50:16;3.10;;;2.80;;
11935;SDS011;6027;48.576;9.180;2023-11-21T05:52:46;4.25;;;2.53;;
11935;SDS011;6027;48.576;9.180;2023-11-21T05:55:12;3.10;;;2.53;;
11935;SDS011;6027;48.576;9.180;2023-11-21T05:57:38;2.85;;;1.60;;
11935;SDS011;6027;48.576;9.180;2023-11-21T06:00:05;2.85;;;1.83;;
11935;SDS011;6027;48.576;9.180;2023-11-21T06:02:41;1.52;;;1.08;;
11935;SDS011;6027;48.576;9.180;2023-11-21T06:05:07;1.50;;;0.88;;
11935;SDS011;6027;48.576;9.180;2023-11-21T06:07:33;2.33;;;0.85;;
11935;SDS011;6027;48.576;9.180;2023-11-21T06:10:02;2.80;;;0.80;;
11935;SDS011;6027;48.576;9.180;2023-11-21T06:12:35;1.75;;;0.90;;
11935;SDS011;6027;48.576;9.180;2023-11-21T06:15:02;1.38;;;0.90;;
11935;SDS011;6027;48.576;9.180;2023-11-21T06:17:34;3.63;;;1.40;;
11935;SDS011;6027;48.576;9.180;2023-11-21T06:20:03;3.17;;;1.88;;
11935;SDS011;6027;48.576;9.180;2023-11-21T06:22:37;3.45;;;1.50;;
11935;SDS011;6027;48.576;9.180;2023-11-21T06:25:04;2.17;;;1.42;;
11935;SDS011;6027;48.576;9.180;2023-11-21T06:27:34;0.88;;;0.88;;
11935;SDS011;6027;48.576;9.180;2023-11-21T06:30:02;1.50;;;0.90;;
11935;SDS011;6027;48.576;9.180;2023-11-21T06:32:28;1.88;;;1.17;;
11935;SDS011;6027;48.576;9.180;2023-11-21T06:34:57;3.67;;;2.00;;
11935;SDS011;6027;48.576;9.180;2023-11-21T06:37:29;2.17;;;1.98;;
11935;SDS011;6027;48.576;9.180;2023-11-21T06:39:55;2.92;;;1.90;;
11935;SDS011;6027;48.576;9.180;2023-11-21T06:42:22;5.05;;;2.20;;
11935;SDS011;6027;48.576;9.180;2023-11-21T06:44:49;3.08;;;2.35;;
11935;SDS011;6027;48.576;9.180;2023-11-21T06:47:16;3.15;;;2.08;;
11935;SDS011;6027;48.576;9.180;2023-11-21T06:49:42;4.50;;;2.38;;
11935;SDS011;6027;48.576;9.180;2023-11-21T06:52:13;4.80;;;2.63;;
11935;SDS011;6027;48.576;9.180;2023-11-21T06:54:39;5.90;;;2.90;;
11935;SDS011;6027;48.576;9.180;2023-11-21T06:57:04;5.45;;;3.40;;
11935;SDS011;6027;48.576;9.180;2023-11-21T06:59:30;4.85;;;3.80;;
11935;SDS011;6027;48.576;9.180;2023-11-21T07:01:55;4.85;;;4.40;;
11935;SDS011;6027;48.576;9.180;2023-11-21T07:04:21;5.57;;;4.68;;
11935;SDS011;6027;48.576;9.180;2023-11-21T07:06:46;6.20;;;4.68;;
11935;SDS011;6027;48.576;9.180;2023-11-21T07:09:12;6.00;;;5.25;;
11935;SDS011;6027;48.576;9.180;2023-11-21T07:11:38;6.22;;;5.65;;
11935;SDS011;6027;48.576;9.180;2023-11-21T07:14:04;6.45;;;5.65;;
11935;SDS011;6027;48.576;9.180;2023-11-21T07:16:35;6.85;;;5.57;;
11935;SDS011;6027;48.576;9.180;2023-11-21T07:19:05;6.07;;;4.18;;
11935;SDS011;6027;48.576;9.180;2023-11-21T07:21:33;5.65;;;3.78;;
11935;SDS011;6027;48.576;9.180;2023-11-21T07:24:02;5.53;;;3.30;;
11935;SDS011;6027;48.576;9.180;2023-11-21T07:26:33;4.20;;;2.65;;
11935;SDS011;6027;48.576;9.180;2023-11-21T07:28:59;3.30;;;2.80;;
11935;SDS011;6027;48.576;9.180;2023-11-21T07:31:25;4.68;;;2.92;;
11935;SDS011;6027;48.576;9.180;2023-11-21T07:33:51;4.55;;;2.90;;
11935;SDS011;6027;48.576;9.180;2023-11-21T07:36:16;5.88;;;2.63;;
11935;SDS011;6027;48.576;9.180;2023-11-21T07:38:48;3.90;;;2.10;;
11935;SDS011;6027;48.576;9.180;2023-11-21T07:41:14;4.28;;;2.33;;
11935;SDS011;6027;48.576;9.180;2023-11-21T07:43:44;2.95;;;2.17;;
11935;SDS011;6027;48.576;9.180;2023-11-21T07:46:11;5.28;;;2.28;;
11935;SDS011;6027;48.576;9.180;2023-11-21T07:48:38;3.15;;;2.33;;
11935;SDS011;6027;48.576;9.180;2023-11-21T07:51:04;2.00;;;1.50;;
11935;SDS011;6027;48.576;9.180;2023-11-21T07:53:30;3.70;;;2.60;;
11935;SDS011;6027;48.576;9.180;2023-11-21T07:55:58;3.92;;;2.65;;
11935;SDS011;6027;48.576;9.180;2023-11-21T07:58:28;4.10;;;2.90;;
11935;SDS011;6027;48.576;9.180;2023-11-21T08:00:53;6.45;;;3.40;;
11935;SDS011;6027;48.576;9.180;2023-11-21T08:03:19;5.93;;;3.42;;
11935;SDS011;6027;48.576;9.180;2023-11-21T08:05:44;4.72;;;3.50;;
11935;SDS011;6027;48.576;9.180;2023-11-21T08:08:10;4.63;;;3.40;;
11935;SDS011;6027;48.576;9.180;2023-11-21T08:10:36;3.97;;;2.90;;
11935;SDS011;6027;48.576;9.180;2023-11-21T08:13:02;4.45;;;3.20;;
11935;SDS011;6027;48.576;9.180;2023-11-21T08:15:28;19.45;;;17.35;;
11935;SDS011;6027;48.576;9.180;2023-11-21T08:17:54;19.25;;;16.85;;
11935;SDS011;6027;48.576;9.180;2023-11-21T08:20:20;8.13;;;7.32;;
11935;SDS011;6027;48.576;9.180;2023-11-21T08:22:47;11.10;;;8.57;;
11935;SDS011;6027;48.576;9.180;2023-11-21T08:25:13;4.60;;;3.60;;
11935;SDS011;6027;48.576;9.180;2023-11-21T08:27:39;3.60;;;2.42;;
11935;SDS011;6027;48.576;9.180;2023-11-21T08:30:04;3.55;;;2.10;;
11935;SDS011;6027;48.576;9.180;2023-11-21T08:32:30;1.98;;;1.50;;
11935;SDS011;6027;48.576;9.180;2023-11-21T08:34:57;2.30;;;2.10;;
11935;SDS011;6027;48.576;9.180;2023-11-21T08:37:23;3.30;;;2.33;;
11935;SDS011;6027;48.576;9.180;2023-11-21T08:39:49;2.80;;;2.10;;
11935;SDS011;6027;48.576;9.180;2023-11-21T08:42:14;4.10;;;3.70;;
11935;SDS011;6027;48.576;9.180;2023-11-21T08:44:40;2.03;;;1.77;;
11935;SDS011;6027;48.576;9.180;2023-11-21T08:47:06;4.25;;;1.15;;
11935;SDS011;6027;48.576;9.180;2023-11-21T08:49:32;2.88;;;1.20;;
11935;SDS011;6027;48.576;9.180;2023-11-21T08:51:58;1.65;;;1.20;;
11935;SDS011;6027;48.576;9.180;2023-11-21T08:54:25;3.42;;;1.30;;
11935;SDS011;6027;48.576;9.180;2023-11-21T08:56:51;2.38;;;1.30;;
11935;SDS011;6027;48.576;9.180;2023-11-21T08:59:17;1.70;;;1.38;;
11935;SDS011;6027;48.576;9.180;2023-11-21T09:01:42;2.75;;;1.60;;
11935;SDS011;6027;48.576;9.180;2023-11-21T09:04:08;2.63;;;1.75;;
11935;SDS011;6027;48.576;9.180;2023-11-21T09:06:33;3.45;;;2.33;;
11935;SDS011;6027;48.576;9.180;2023-11-21T09:08:58;4.30;;;2.40;;
11935;SDS011;6027;48.576;9.180;2023-11-21T09:11:24;2.97;;;2.10;;
11935;SDS011;6027;48.576;9.180;2023-11-21T09:13:52;2.33;;;1.90;;
11935;SDS011;6027;48.576;9.180;2023-11-21T09:16:17;3.60;;;1.80;;
11935;SDS011;6027;48.576;9.180;2023-11-21T09:18:43;1.98;;;1.65;;
11935;SDS011;6027;48.576;9.180;2023-11-21T09:21:08;3.30;;;1.50;;
11935;SDS011;6027;48.576;9.180;2023-11-21T09:23:34;2.67;;;1.70;;
11935;SDS011;6027;48.576;9.180;2023-11-21T09:26:00;2.55;;;1.90;;
11935;SDS011;6027;48.576;9.180;2023-11-21T09:28:26;3.65;;;1.75;;
11935;SDS011;6027;48.576;9.180;2023-11-21T09:30:52;2.10;;;1.70;;
11935;SDS011;6027;48.576;9.180;2023-11-21T09:33:18;2.13;;;1.42;;
11935;SDS011;6027;48.576;9.180;2023-11-21T09:35:44;1.85;;;1.40;;
11935;SDS011;6027;48.576;9.180;2023-11-21T09:38:10;2.42;;;1.50;;
11935;SDS011;6027;48.576;9.180;2023-11-21T09:40:36;2.78;;;1.60;;
11935;SDS011;6027;48.576;9.180;2023-11-21T09:43:05;3.00;;;1.65;;
11935;SDS011;6027;48.576;9.180;2023-11-21T09:45:36;3.75;;;1.70;;
11935;SDS011;6027;48.576;9.180;2023-11-21T09:48:04;5.03;;;1.40;;
11935;SDS011;6027;48.576;9.180;2023-11-21T09:50:31;3.53;;;1.77;;
11935;SDS011;6027;48.576;9.180;2023-11-21T09:55:53;2.75;;;1.63;;
11935;SDS011;6027;48.576;9.180;2023-11-21T09:58:19;1.83;;;1.40;;
11935;SDS011;6027;48.576;9.180;2023-11-21T10:00:47;2.28;;;1.40;;
11935;SDS011;6027;48.576;9.180;2023-11-21T10:03:13;1.50;;;1.40;;
11935;SDS011;6027;48.576;9.180;2023-11-21T10:05:42;1.95;;;1.60;;
11935;SDS011;6027;48.576;9.180;2023-11-21T10:08:11;2.60;;;1.30;;
11935;SDS011;6027;48.576;9.180;2023-11-21T10:10:38;4.72;;;1.60;;
11935;SDS011;6027;48.576;9.180;2023-11-21T10:13:11;2.88;;;1.60;;
11935;SDS011;6027;48.576;9.180;2023-11-21T10:15:38;1.88;;;1.48;;
11935;SDS011;6027;48.576;9.180;2023-11-21T10:18:04;2.17;;;1.40;;
11935;SDS011;6027;48.576;9.180;2023-11-21T10:20:32;1.50;;;1.40;;
11935;SDS011;6027;48.576;9.180;2023-11-21T10:22:59;1.77;;;1.58;;
11935;SDS011;6027;48.576;9.180;2023-11-21T10:25:27;1.83;;;1.60;;
11935;SDS011;6027;48.576;9.180;2023-11-21T10:27:56;2.00;;;1.80;;
11935;SDS011;6027;48.576;9.180;2023-11-21T10:30:32;1.55;;;1.38;;
11935;SDS011;6027;48.576;9.180;2023-11-21T10:33:02;2.70;;;1.50;;
11935;SDS011;6027;48.576;9.180;2023-11-21T10:38:07;4.65;;;1.60;;
11935;SDS011;6027;48.576;9.180;2023-11-21T10:40:37;2.17;;;1.60;;
11935;SDS011;6027;48.576;9.180;2023-11-21T10:43:10;3.63;;;1.50;;
11935;SDS011;6027;48.576;9.180;2023-11-21T10:45:37;2.88;;;1.42;;
11935;SDS011;6027;48.576;9.180;2023-11-21T10:48:09;1.90;;;1.25;;
11935;SDS011;6027;48.576;9.180;2023-11-21T10:50:40;2.05;;;1.42;;
11935;SDS011;6027;48.576;9.180;2023-11-21T10:53:06;2.22;;;1.50;;
11935;SDS011;6027;48.576;9.180;2023-11-21T10:55:32;2.55;;;1.73;;
11935;SDS011;6027;48.576;9.180;2023-11-21T10:58:01;4.80;;;1.60;;
11935;SDS011;6027;48.576;9.180;2023-11-21T11:00:30;2.80;;;2.20;;
11935;SDS011;6027;48.576;9.180;2023-11-21T11:02:56;1.70;;;1.60;;
11935;SDS011;6027;48.576;9.180;2023-11-21T11:05:24;1.95;;;1.58;;
11935;SDS011;6027;48.576;9.180;2023-11-21T11:08:04;1.88;;;1.70;;
11935;SDS011;6027;48.576;9.180;2023-11-21T11:10:30;2.35;;;1.33;;
11935;SDS011;6027;48.576;9.180;2023-11-21T11:12:57;1.38;;;1.25;;
11935;SDS011;6027;48.576;9.180;2023-11-21T11:15:24;1.50;;;1.40;;
11935;SDS011;6027;48.576;9.180;2023-11-21T11:17:51;3.25;;;1.38;;
11935;SDS011;6027;48.576;9.180;2023-11-21T11:20:17;2.47;;;1.20;;
11935;SDS011;6027;48.576;9.180;2023-11-21T11:28:51;4.10;;;1.67;;
11935;SDS011;6027;48.576;9.180;2023-11-21T11:31:42;2.47;;;1.50;;
11935;SDS011;6027;48.576;9.180;2023-11-21T11:36:49;2.25;;;1.77;;
11935;SDS011;6027;48.576;9.180;2023-11-21T11:39:27;2.65;;;2.40;;
11935;SDS011;6027;48.576;9.180;2023-11-21T11:41:57;4.95;;;3.83;;
11935;SDS011;6027;48.576;9.180;2023-11-21T11:44:48;5.15;;;4.72;;
11935;SDS011;6027;48.576;9.180;2023-11-21T11:47:16;5.03;;;4.57;;
11935;SDS011;6027;48.576;9.180;2023-11-21T11:50:02;6.47;;;5.97;;
11935;SDS011;6027;48.576;9.180;2023-11-21T11:52:48;6.00;;;5.50;;
11935;SDS011;6027;48.576;9.180;2023-11-21T11:55:16;6.35;;;5.75;;
11935;SDS011;6027;48.576;9.180;2023-11-21T11:57:44;5.55;;;4.97;;
11935;SDS011;6027;48.576;9.180;2023-11-21T12:02:45;3.03;;;2.83;;
11935;SDS011;6027;48.576;9.180;2023-11-21T12:05:32;2.90;;;2.00;;
11935;SDS011;6027;48.576;9.180;2023-11-21T12:08:01;2.30;;;1.77;;
11935;SDS011;6027;48.576;9.180;2023-11-21T12:10:32;1.85;;;1.75;;
11935;SDS011;6027;48.576;9.180;2023-11-21T12:13:06;3.15;;;1.95;;
11935;SDS011;6027;48.576;9.180;2023-11-21T12:15:33;2.40;;;1.60;;
11935;SDS011;6027;48.576;9.180;2023-11-21T12:18:00;1.65;;;1.55;;
11935;SDS011;6027;48.576;9.180;2023-11-21T12:20:26;2.38;;;1.80;;
11935;SDS011;6027;48.576;9.180;2023-11-21T12:22:52;3.40;;;1.90;;
11935;SDS011;6027;48.576;9.180;2023-11-21T12:25:20;2.00;;;1.80;;
11935;SDS011;6027;48.576;9.180;2023-11-21T12:27:47;6.22;;;5.28;;
11935;SDS011;6027;48.576;9.180;2023-11-21T12:30:17;4.55;;;4.15;;
11935;SDS011;6027;48.576;9.180;2023-11-21T12:32:45;2.30;;;2.10;;
11935;SDS011;6027;48.576;9.180;2023-11-21T12:35:13;3.30;;;2.15;;
11935;SDS011;6027;48.576;9.180;2023-11-21T12:37:39;2.35;;;1.80;;
11935;SDS011;6027;48.576;9.180;2023-11-21T12:40:06;1.83;;;1.60;;
11935;SDS011;6027;48.576;9.180;2023-11-21T12:42:40;3.20;;;1.95;;
11935;SDS011;6027;48.576;9.180;2023-11-21T12:47:36;2.80;;;2.40;;
11935;SDS011;6027;48.576;9.180;2023-11-21T12:50:02;2.80;;;2.55;;
11935;SDS011;6027;48.576;9.180;2023-11-21T12:52:28;3.35;;;1.88;;
11935;SDS011;6027;48.576;9.180;2023-11-21T12:54:53;2.20;;;2.00;;
11935;SDS011;6027;48.576;9.180;2023-11-21T12:57:25;2.70;;;2.00;;
11935;SDS011;6027;48.576;9.180;2023-11-21T12:59:56;2.38;;;1.70;;
11935;SDS011;6027;48.576;9.180;2023-11-21T13:02:22;1.80;;;1.63;;
11935;SDS011;6027;48.576;9.180;2023-11-21T13:04:51;2.40;;;1.92;;
11935;SDS011;6027;48.576;9.180;2023-11-21T13:07:19;2.63;;;2.40;;
11935;SDS011;6027;48.576;9.180;2023-11-21T13:09:45;2.80;;;2.60;;
11935;SDS011;6027;48.576;9.180;2023-11-21T13:12:11;3.58;;;3.28;;
11935;SDS011;6027;48.576;9.180;2023-11-21T13:14:39;2.85;;;2.65;;
11935;SDS011;6027;48.576;9.180;2023-11-21T13:17:05;3.53;;;2.15;;
11935;SDS011;6027;48.576;9.180;2023-11-21T13:19:30;3.78;;;2.30;;
11935;SDS011;6027;48.576;9.180;2023-11-21T13:21:56;2.20;;;2.00;;
11935;SDS011;6027;48.576;9.180;2023-11-21T13:24:21;3.47;;;2.30;;
11935;SDS011;6027;48.576;9.180;2023-11-21T13:26:46;8.55;;;7.75;;
11935;SDS011;6027;48.576;9.180;2023-11-21T13:29:12;10.93;;;9.18;;
11935;SDS011;6027;48.576;9.180;2023-11-21T13:31:38;6.45;;;4.82;;
11935;SDS011;6027;48.576;9.180;2023-11-21T13:34:04;4.72;;;4.30;;
11935;SDS011;6027;48.576;9.180;2023-11-21T13:36:33;3.40;;;3.10;;
11935;SDS011;6027;48.576;9.180;2023-11-21T13:39:00;5.00;;;3.47;;
11935;SDS011;6027;48.576;9.180;2023-11-21T13:41:32;3.90;;;3.58;;
11935;SDS011;6027;48.576;9.180;2023-11-21T13:43:59;5.15;;;4.10;;
11935;SDS011;6027;48.576;9.180;2023-11-21T13:46:41;3.50;;;3.20;;
11935;SDS011;6027;48.576;9.180;2023-11-21T13:49:07;3.72;;;2.90;;
11935;SDS011;6027;48.576;9.180;2023-11-21T13:51:35;5.75;;;3.28;;
11935;SDS011;6027;48.576;9.180;2023-11-21T13:54:09;3.63;;;2.83;;
11935;SDS011;6027;48.576;9.180;2023-11-21T13:56:35;3.45;;;2.50;;
11935;SDS011;6027;48.576;9.180;2023-11-21T13:59:02;2.88;;;2.60;;
11935;SDS011;6027;48.576;9.180;2023-11-21T14:01:38;2.85;;;2.22;;
11935;SDS011;6027;48.576;9.180;2023-11-21T14:04:10;2.85;;;2.20;;
11935;SDS011;6027;48.576;9.180;2023-11-21T14:06:48;2.80;;;2.22;;
11935;SDS011;6027;48.576;9.180;2023-11-21T14:09:16;3.67;;;2.58;;
11935;SDS011;6027;48.576;9.180;2023-11-21T14:11:54;5.68;;;2.67;;
11935;SDS011;6027;48.576;9.180;2023-11-21T14:14:25;17.92;;;12.65;;
11935;SDS011;6027;48.576;9.180;2023-11-21T14:16:52;5.68;;;5.13;;
11935;SDS011;6027;48.576;9.180;2023-11-21T14:19:18;5.35;;;4.35;;
11935;SDS011;6027;48.576;9.180;2023-11-21T14:21:44;2.80;;;2.60;;
11935;SDS011;6027;48.576;9.180;2023-11-21T14:24:13;3.70;;;3.40;;
11935;SDS011;6027;48.576;9.180;2023-11-21T14:26:44;6.25;;;4.20;;
11935;SDS011;6027;48.576;9.180;2023-11-21T14:29:13;4.82;;;4.10;;
11935;SDS011;6027;48.576;9.180;2023-11-21T14:31:42;4.20;;;3.80;;
11935;SDS011;6027;48.576;9.180;2023-11-21T14:34:08;4.72;;;3.92;;
11935;SDS011;6027;48.576;9.180;2023-11-21T14:36:34;7.13;;;5.63;;
11935;SDS011;6027;48.576;9.180;2023-11-21T14:39:01;7.57;;;6.70;;
11935;SDS011;6027;48.576;9.180;2023-11-21T14:41:28;5.43;;;4.88;;
11935;SDS011;6027;48.576;9.180;2023-11-21T14:43:54;7.13;;;5.70;;
11935;SDS011;6027;48.576;9.180;2023-11-21T14:46:21;4.70;;;4.07;;
11935;SDS011;6027;48.576;9.180;2023-11-21T14:48:46;3.47;;;2.25;;
11935;SDS011;6027;48.576;9.180;2023-11-21T14:51:23;1.13;;;1.10;;
11935;SDS011;6027;48.576;9.180;2023-11-21T14:53:59;0.93;;;0.90;;
11935;SDS011;6027;48.576;9.180;2023-11-21T14:56:31;1.45;;;1.17;;
11935;SDS011;6027;48.576;9.180;2023-11-21T14:58:59;2.50;;;2.30;;
11935;SDS011;6027;48.576;9.180;2023-11-21T15:01:32;1.30;;;1.20;;
11935;SDS011;6027;48.576;9.180;2023-11-21T15:04:18;2.15;;;1.15;;
11935;SDS011;6027;48.576;9.180;2023-11-21T15:07:04;1.95;;;1.30;;
11935;SDS011;6027;48.576;9.180;2023-11-21T15:09:33;2.55;;;1.58;;
11935;SDS011;6027;48.576;9.180;2023-11-21T15:11:59;2.63;;;2.08;;
11935;SDS011;6027;48.576;9.180;2023-11-21T15:14:37;1.70;;;1.60;;
11935;SDS011;6027;48.576;9.180;2023-11-21T15:17:03;2.50;;;2.10;;
11935;SDS011;6027;48.576;9.180;2023-11-21T15:19:28;2.08;;;1.98;;
11935;SDS011;6027;48.576;9.180;2023-11-21T15:21:56;5.18;;;4.38;;